KEGI/EGI METAR and TAF weather

Enter ICAO airport designator
Station Type Date Time Source
KEGI METAR 2021/04/18 03:10 UTC NOAA

KEGI 180310Z AUTO 00000KT 10SM -RA SCT006 16/16 A2994 RMK AO2 SLP139 $


Station Type Date Time Source
KEGI Decoded METAR 2021/04/18 03:10 UTC NOAA

Duke Field / Eglin Auxiliary, FL, United States (KEGI) 30-39N 086-31W
Apr 17, 2021 - 11:10 PM EDT / 2021.04.18 0310 UTC
Wind: Calm:0
Visibility: 10 mile(s):0
Sky conditions: partly cloudy
Weather: light rain
Temperature: 60 F (16 C)
Dew Point: 60 F (16 C)
Relative Humidity: 100%
Pressure (altimeter): 29.94 in. Hg (1013 hPa)
ob: KEGI 180310Z AUTO 00000KT 10SM -RA SCT006 16/16 A2994 RMK AO2 SLP139
cycle: 3

Station Type Date Time Source
KEGI TAF 2021/04/17 06:00 UTC NOAA

TAF
AMD KEGI 170600Z 1706/1807 04009KT 8000 -SHRA SCT010 BKN050 OVC120 QNH2980INS
BECMG 1708/1709 02006KT 9999 NSW SCT010 BKN020 QNH2982INS
BECMG 1715/1716 04009KT 8000 -SHRA VCTS SCT005 BKN015CB OVC035 QNH2984INS
TEMPO 1717/1719 06012G18KT 4800 -TSRA BKN005CB OVC015
BECMG 1802/1803 03008KT 9999 NSW FEW015 SCT025 BKN035 QNH2990INS TX21/1721Z TN12/1711Z LAST NO
AMDS AFT 1706 NEXT 1909

Example: see airport list